createdAt,value
2022-11-07T00:00:13.368Z,8.57
2022-11-07T00:02:39.923Z,8.68
2022-11-07T00:05:07.030Z,7.88
2022-11-07T00:07:33.499Z,8.35
2022-11-07T00:09:59.899Z,7.63
2022-11-07T00:12:26.308Z,7.85
2022-11-07T00:14:52.692Z,7.05
2022-11-07T00:17:19.165Z,6.32
2022-11-07T00:19:45.772Z,5.22
2022-11-07T00:22:12.141Z,5.43
2022-11-07T00:24:38.682Z,5.55
2022-11-07T00:27:05.326Z,4.72
2022-11-07T00:29:31.767Z,4.40
2022-11-07T00:31:59.637Z,4.15
2022-11-07T00:34:26.145Z,3.63
2022-11-07T00:36:52.608Z,3.08
2022-11-07T00:39:19.099Z,3.38
2022-11-07T00:41:48.467Z,3.22
2022-11-07T00:44:15.572Z,3.47
2022-11-07T00:46:41.943Z,3.60
2022-11-07T00:49:08.364Z,3.85
2022-11-07T00:51:35.025Z,3.63
2022-11-07T00:54:03.499Z,3.30
2022-11-07T00:56:30.028Z,3.42
2022-11-07T00:58:58.166Z,3.03
2022-11-07T01:01:30.466Z,2.95
2022-11-07T01:04:15.714Z,3.33
2022-11-07T01:06:43.820Z,2.88
2022-11-07T01:09:13.032Z,3.63
2022-11-07T01:11:40.625Z,3.72
2022-11-07T01:14:09.462Z,3.30
2022-11-07T01:16:38.735Z,3.60
2022-11-07T01:19:06.291Z,3.65
2022-11-07T01:21:32.691Z,4.03
2022-11-07T01:24:00.217Z,3.85
2022-11-07T01:26:27.006Z,3.85
2022-11-07T01:28:53.442Z,3.60
2022-11-07T01:31:20.139Z,3.05
2022-11-07T01:33:47.061Z,2.53
2022-11-07T01:36:16.580Z,2.60
2022-11-07T01:38:46.003Z,3.78
2022-11-07T01:41:21.773Z,4.10
2022-11-07T01:44:02.379Z,3.45
2022-11-07T01:46:43.229Z,3.83
2022-11-07T01:49:15.550Z,3.60
2022-11-07T01:51:48.376Z,3.85
2022-11-07T01:54:19.290Z,3.03
2022-11-07T01:56:46.178Z,4.20
2022-11-07T01:59:17.787Z,3.42
2022-11-07T02:01:48.379Z,3.83
2022-11-07T02:04:16.585Z,4.25
2022-11-07T02:06:49.683Z,4.05
2022-11-07T02:09:16.157Z,4.00
2022-11-07T02:11:42.638Z,3.92
2022-11-07T02:14:15.074Z,3.80
2022-11-07T02:16:41.847Z,4.13
2022-11-07T02:19:15.266Z,3.60
2022-11-07T02:21:49.500Z,3.78
2022-11-07T02:24:24.142Z,3.85
2022-11-07T02:26:52.592Z,4.78
2022-11-07T02:29:19.991Z,5.32
2022-11-07T02:31:46.363Z,4.72
2022-11-07T02:34:12.733Z,5.00
2022-11-07T02:36:39.255Z,6.28
2022-11-07T02:39:05.616Z,5.32
2022-11-07T02:41:34.650Z,5.65
2022-11-07T02:44:08.140Z,6.22
2022-11-07T02:46:35.495Z,5.85
2022-11-07T02:49:02.138Z,7.55
2022-11-07T02:51:29.061Z,6.60
2022-11-07T02:53:55.883Z,6.95
2022-11-07T02:56:22.894Z,6.15
2022-11-07T02:58:49.696Z,6.47
2022-11-07T03:01:16.170Z,18.45
2022-11-07T03:03:46.117Z,6.63
2022-11-07T03:06:19.069Z,5.70
2022-11-07T03:08:45.604Z,11.63
2022-11-07T03:11:12.999Z,12.38
2022-11-07T03:13:40.240Z,5.72
2022-11-07T03:16:09.400Z,4.00
2022-11-07T03:18:36.636Z,3.90
2022-11-07T03:21:03.794Z,4.30
2022-11-07T03:23:30.359Z,4.43
2022-11-07T03:25:57.253Z,4.25
2022-11-07T03:28:24.717Z,4.20
2022-11-07T03:30:52.098Z,3.75
2022-11-07T03:33:18.609Z,4.25
2022-11-07T03:35:44.975Z,4.40
2022-11-07T03:38:11.623Z,6.07
2022-11-07T03:40:38.135Z,3.80
2022-11-07T03:43:04.506Z,5.15
2022-11-07T03:45:30.888Z,3.80
2022-11-07T03:47:57.248Z,3.15
2022-11-07T03:50:23.608Z,3.20
2022-11-07T03:52:49.967Z,3.13
2022-11-07T03:55:18.045Z,3.00
2022-11-07T03:57:45.447Z,2.55
2022-11-07T04:00:12.960Z,2.92
2022-11-07T04:02:39.860Z,3.08
2022-11-07T04:05:06.901Z,2.60
2022-11-07T04:07:33.406Z,3.58
2022-11-07T04:09:59.780Z,2.20
2022-11-07T04:12:44.664Z,3.08
2022-11-07T04:15:29.954Z,2.15
2022-11-07T04:17:56.565Z,2.05
2022-11-07T04:20:23.274Z,2.22
2022-11-07T04:22:49.642Z,2.30
2022-11-07T04:25:16.092Z,2.50
2022-11-07T04:27:42.524Z,2.80
2022-11-07T04:30:26.095Z,2.58
2022-11-07T04:32:58.232Z,7.95
2022-11-07T04:35:27.861Z,8.40
2022-11-07T04:37:54.254Z,5.22
2022-11-07T04:40:21.333Z,3.00
2022-11-07T04:42:48.709Z,3.20
2022-11-07T04:45:15.308Z,2.97
2022-11-07T04:47:42.007Z,4.07
2022-11-07T04:50:11.191Z,5.50
2022-11-07T04:52:37.973Z,3.28
2022-11-07T04:55:06.100Z,1.80
2022-11-07T04:57:32.520Z,3.28
2022-11-07T04:59:59.078Z,2.53
2022-11-07T05:02:25.897Z,2.05
2022-11-07T05:04:53.220Z,2.20
2022-11-07T05:07:20.239Z,3.97
2022-11-07T05:09:46.639Z,6.20
2022-11-07T05:12:13.203Z,2.35
2022-11-07T05:14:39.595Z,2.10
2022-11-07T05:17:06.038Z,2.65
2022-11-07T05:19:32.437Z,3.00
2022-11-07T05:22:17.410Z,11.50
2022-11-07T05:24:43.764Z,5.88
2022-11-07T05:27:18.230Z,4.20
2022-11-07T05:29:44.775Z,4.50
2022-11-07T05:32:11.239Z,2.63
2022-11-07T05:34:37.642Z,2.63
2022-11-07T05:37:07.360Z,2.10
2022-11-07T05:39:33.772Z,2.40
2022-11-07T05:42:01.416Z,3.22
2022-11-07T05:44:28.156Z,2.40
2022-11-07T05:46:55.962Z,2.53
2022-11-07T05:49:22.353Z,2.65
2022-11-07T05:51:48.713Z,2.88
2022-11-07T05:54:15.110Z,2.30
2022-11-07T05:56:43.872Z,3.38
2022-11-07T05:59:11.147Z,2.97
2022-11-07T06:01:37.654Z,3.10
2022-11-07T06:04:04.996Z,3.20
2022-11-07T06:06:31.695Z,2.67
2022-11-07T06:08:58.404Z,3.05
2022-11-07T06:11:25.425Z,3.10
2022-11-07T06:13:53.036Z,3.03
2022-11-07T06:16:19.409Z,3.80
2022-11-07T06:18:45.786Z,2.90
2022-11-07T06:21:12.263Z,3.53
2022-11-07T06:23:38.626Z,3.15
2022-11-07T06:26:05.226Z,3.08
2022-11-07T06:28:31.591Z,4.30
2022-11-07T06:31:02.468Z,4.50
2022-11-07T06:33:30.004Z,5.18
2022-11-07T06:36:03.638Z,4.18
2022-11-07T06:38:30.012Z,3.38
2022-11-07T06:40:56.372Z,3.80
2022-11-07T06:43:22.818Z,3.30
2022-11-07T06:45:49.250Z,4.35
2022-11-07T06:48:15.742Z,4.28
2022-11-07T06:50:42.195Z,3.75
2022-11-07T06:53:11.439Z,3.70
2022-11-07T06:55:38.987Z,3.70
2022-11-07T06:58:06.165Z,3.83
2022-11-07T07:00:35.339Z,4.88
2022-11-07T07:03:01.856Z,3.85
2022-11-07T07:05:28.315Z,4.78
2022-11-07T07:07:55.779Z,3.97
2022-11-07T07:10:24.678Z,4.05
2022-11-07T07:12:51.245Z,4.43
2022-11-07T07:15:17.643Z,4.03
2022-11-07T07:17:44.007Z,3.95
2022-11-07T07:20:11.024Z,4.38
2022-11-07T07:22:37.511Z,3.67
2022-11-07T07:25:04.096Z,3.53
2022-11-07T07:27:30.476Z,3.58
2022-11-07T07:29:56.821Z,3.80
2022-11-07T07:32:25.161Z,3.30
2022-11-07T07:34:52.136Z,3.97
2022-11-07T07:37:19.022Z,3.83
2022-11-07T07:39:45.430Z,3.80
2022-11-07T07:42:11.870Z,3.75
2022-11-07T07:44:38.569Z,3.40
2022-11-07T07:47:10.054Z,3.90
2022-11-07T07:49:37.527Z,3.83
2022-11-07T07:52:04.091Z,4.10
2022-11-07T07:54:30.489Z,3.95
2022-11-07T07:56:56.909Z,3.65
2022-11-07T07:59:23.281Z,3.25
2022-11-07T08:01:55.242Z,3.42
2022-11-07T08:04:23.118Z,4.22
2022-11-07T08:06:49.491Z,3.60
2022-11-07T08:09:15.868Z,3.15
2022-11-07T08:11:42.248Z,3.85
2022-11-07T08:14:08.641Z,2.90
2022-11-07T08:16:35.016Z,3.78
2022-11-07T08:19:01.385Z,3.38
2022-11-07T08:21:27.800Z,3.28
2022-11-07T08:23:54.818Z,3.05
2022-11-07T08:26:21.275Z,3.90
2022-11-07T08:28:47.656Z,3.20
2022-11-07T08:31:14.141Z,4.72
2022-11-07T08:33:40.757Z,4.55
2022-11-07T08:36:07.669Z,4.40
2022-11-07T08:38:35.599Z,3.70
2022-11-07T08:41:02.554Z,3.15
2022-11-07T08:43:29.004Z,3.53
2022-11-07T08:45:55.666Z,4.28
2022-11-07T08:48:22.759Z,3.90
2022-11-07T08:50:54.131Z,2.90
2022-11-07T08:53:21.714Z,2.60
2022-11-07T08:55:48.283Z,3.28
2022-11-07T08:58:15.105Z,2.90
2022-11-07T09:00:41.938Z,3.08
2022-11-07T09:03:31.276Z,2.90
2022-11-07T09:05:57.264Z,2.85
2022-11-07T09:08:23.747Z,2.78
2022-11-07T09:10:50.167Z,2.20
2022-11-07T09:13:16.943Z,2.88
2022-11-07T09:15:47.848Z,2.70
2022-11-07T09:18:16.882Z,2.60
2022-11-07T09:20:43.214Z,2.25
2022-11-07T09:23:09.602Z,2.67
2022-11-07T09:25:35.954Z,2.15
2022-11-07T09:28:03.974Z,2.10
2022-11-07T09:30:30.703Z,2.40
2022-11-07T09:32:57.125Z,2.55
2022-11-07T09:35:23.612Z,2.03
2022-11-07T09:37:51.315Z,2.08
2022-11-07T09:40:40.167Z,2.92
2022-11-07T09:43:24.865Z,2.08
2022-11-07T09:46:20.384Z,2.55
2022-11-07T09:48:54.301Z,2.00
2022-11-07T09:51:30.234Z,1.83
2022-11-07T09:54:01.284Z,1.83
2022-11-07T09:56:30.939Z,3.00
2022-11-07T09:59:01.136Z,2.50
2022-11-07T10:01:31.781Z,2.35
2022-11-07T10:04:23.562Z,2.05
2022-11-07T10:06:51.090Z,2.40
2022-11-07T10:09:34.291Z,2.17
2022-11-07T10:12:16.172Z,2.47
2022-11-07T10:14:53.322Z,2.40
2022-11-07T10:17:45.815Z,2.47
2022-11-07T10:20:39.753Z,2.20
2022-11-07T10:23:19.138Z,2.35
2022-11-07T10:25:58.861Z,2.03
2022-11-07T10:28:27.425Z,2.40
2022-11-07T10:30:58.138Z,2.08
2022-11-07T10:33:36.561Z,1.83
2022-11-07T10:36:27.808Z,2.30
2022-11-07T10:38:54.971Z,2.15
2022-11-07T10:41:27.009Z,1.75
2022-11-07T10:44:00.727Z,1.67
2022-11-07T10:46:40.739Z,1.85
2022-11-07T10:49:30.936Z,1.85
2022-11-07T10:52:18.009Z,2.00
2022-11-07T10:54:47.329Z,1.80
2022-11-07T10:57:19.921Z,1.90
2022-11-07T10:59:56.540Z,1.80
2022-11-07T11:02:26.377Z,3.05
2022-11-07T11:05:02.489Z,2.05
2022-11-07T11:07:40.029Z,1.95
2022-11-07T11:10:24.671Z,1.77
2022-11-07T11:12:51.843Z,2.08
2022-11-07T11:15:20.150Z,1.90
2022-11-07T11:17:47.528Z,2.10
2022-11-07T11:20:40.766Z,2.10
2022-11-07T11:23:18.868Z,1.70
2022-11-07T11:25:48.639Z,2.35
2022-11-07T11:28:27.829Z,2.33
2022-11-07T11:31:01.139Z,1.83
2022-11-07T11:33:36.883Z,2.00
2022-11-07T11:36:16.144Z,2.42
2022-11-07T11:38:52.958Z,1.83
2022-11-07T11:41:34.700Z,1.70
2022-11-07T11:44:41.613Z,1.65
2022-11-07T11:47:20.151Z,2.33
2022-11-07T11:49:54.526Z,1.70
2022-11-07T11:52:23.425Z,1.50
2022-11-07T11:54:51.788Z,2.20
2022-11-07T11:57:27.184Z,1.60
2022-11-07T12:00:17.139Z,1.60
2022-11-07T12:03:41.852Z,1.70
2022-11-07T12:06:14.224Z,1.48
2022-11-07T12:09:01.757Z,1.40
2022-11-07T12:11:50.928Z,2.00
2022-11-07T12:14:31.960Z,1.52
2022-11-07T12:17:09.390Z,1.60
2022-11-07T12:20:02.613Z,1.98
2022-11-07T12:22:43.059Z,2.10
2022-11-07T12:25:22.717Z,1.83
2022-11-07T12:28:17.868Z,2.30
2022-11-07T12:30:57.887Z,1.40
2022-11-07T12:33:36.452Z,1.90
2022-11-07T12:36:23.446Z,2.05
2022-11-07T12:39:14.504Z,2.13
2022-11-07T12:41:58.053Z,2.70
2022-11-07T12:45:01.888Z,2.78
2022-11-07T12:47:48.932Z,2.17
2022-11-07T12:50:23.365Z,1.80
2022-11-07T12:52:57.102Z,1.65
2022-11-07T12:55:27.583Z,1.70
2022-11-07T12:57:55.426Z,1.98
2022-11-07T13:00:29.525Z,1.90
2022-11-07T13:03:12.958Z,2.10
2022-11-07T13:05:51.842Z,2.10
2022-11-07T13:08:30.988Z,2.38
2022-11-07T13:11:06.661Z,2.05
2022-11-07T13:14:07.182Z,1.75
2022-11-07T13:16:36.133Z,1.95
2022-11-07T13:19:10.577Z,2.17
2022-11-07T13:21:42.027Z,2.10
2022-11-07T13:24:19.902Z,2.25
2022-11-07T13:26:47.883Z,2.00
2022-11-07T13:29:39.508Z,1.70
2022-11-07T13:32:12.375Z,1.80
2022-11-07T13:34:45.288Z,2.25
2022-11-07T13:37:22.784Z,1.67
2022-11-07T13:39:54.828Z,1.95
2022-11-07T13:42:25.608Z,2.20
2022-11-07T13:44:59.395Z,2.03
2022-11-07T13:47:34.627Z,2.50
2022-11-07T13:50:09.961Z,1.90
2022-11-07T13:53:04.550Z,2.20
2022-11-07T13:55:55.572Z,2.13
2022-11-07T13:58:22.336Z,1.95
2022-11-07T14:00:48.813Z,1.83
2022-11-07T14:03:24.720Z,1.70
2022-11-07T14:05:52.056Z,2.03
2022-11-07T14:08:31.334Z,2.00
2022-11-07T14:10:58.852Z,2.22
2022-11-07T14:13:30.569Z,1.55
2022-11-07T14:16:00.579Z,1.83
2022-11-07T14:18:32.149Z,1.85
2022-11-07T14:21:00.382Z,1.88
2022-11-07T14:23:32.237Z,1.77
2022-11-07T14:26:23.361Z,1.67
2022-11-07T14:28:50.598Z,2.28
2022-11-07T14:31:31.969Z,2.03
2022-11-07T14:34:01.114Z,4.03
2022-11-07T14:36:28.628Z,2.30
2022-11-07T14:39:00.945Z,2.08
2022-11-07T14:41:27.741Z,1.80
2022-11-07T14:43:57.604Z,2.08
2022-11-07T14:46:25.178Z,1.98
2022-11-07T14:48:52.724Z,1.75
2022-11-07T14:51:25.350Z,1.80
2022-11-07T14:54:04.186Z,3.03
2022-11-07T14:56:36.967Z,2.15
2022-11-07T14:59:03.997Z,1.75
2022-11-07T15:01:34.139Z,1.80
2022-11-07T15:04:16.576Z,1.98
2022-11-07T15:06:44.968Z,2.03
2022-11-07T15:09:12.206Z,4.20
2022-11-07T15:11:59.831Z,2.22
2022-11-07T15:14:34.370Z,3.03
2022-11-07T15:17:04.129Z,1.92
2022-11-07T15:19:33.345Z,1.85
2022-11-07T15:22:03.190Z,1.67
2022-11-07T15:24:41.241Z,1.90
2022-11-07T15:27:13.687Z,1.80
2022-11-07T15:30:02.147Z,1.92
2022-11-07T15:32:41.699Z,2.00
2022-11-07T15:35:42.465Z,1.95
2022-11-07T15:38:03.501Z,5.47
2022-11-07T15:40:30.437Z,2.60
2022-11-07T15:42:57.152Z,2.38
2022-11-07T15:45:23.865Z,2.38
2022-11-07T15:47:51.436Z,2.22
2022-11-07T15:50:24.298Z,1.95
2022-11-07T15:52:52.327Z,2.50
2022-11-07T15:55:21.854Z,2.30
2022-11-07T15:57:51.961Z,2.17
2022-11-07T16:00:26.080Z,1.90
2022-11-07T16:02:52.704Z,2.05
2022-11-07T16:05:19.247Z,2.80
2022-11-07T16:07:46.275Z,2.70
2022-11-07T16:10:26.625Z,2.50
2022-11-07T16:12:53.771Z,2.70
2022-11-07T16:15:23.750Z,2.58
2022-11-07T16:17:50.211Z,2.33
2022-11-07T16:20:19.334Z,2.45
2022-11-07T16:22:49.594Z,2.25
2022-11-07T16:25:21.779Z,2.90
2022-11-07T16:27:51.153Z,2.40
2022-11-07T16:30:18.690Z,2.65
2022-11-07T16:32:45.436Z,2.33
2022-11-07T16:35:11.893Z,2.40
2022-11-07T16:37:38.735Z,2.85
2022-11-07T16:40:06.702Z,3.75
2022-11-07T16:42:33.141Z,2.97
2022-11-07T16:44:59.728Z,2.95
2022-11-07T16:47:26.293Z,3.30
2022-11-07T16:49:55.976Z,2.55
2022-11-07T16:52:25.180Z,2.95
2022-11-07T16:54:51.594Z,2.28
2022-11-07T16:57:18.722Z,2.10
2022-11-07T16:59:46.471Z,2.10
2022-11-07T17:02:21.019Z,2.50
2022-11-07T17:04:50.328Z,2.92
2022-11-07T17:07:18.413Z,2.20
2022-11-07T17:09:44.873Z,2.53
2022-11-07T17:12:22.344Z,3.28
2022-11-07T17:14:49.528Z,2.83
2022-11-07T17:17:17.813Z,2.72
2022-11-07T17:19:44.543Z,2.75
2022-11-07T17:22:11.412Z,3.63
2022-11-07T17:24:38.254Z,2.70
2022-11-07T17:27:23.825Z,3.50
2022-11-07T17:29:51.729Z,2.95
2022-11-07T17:32:18.579Z,2.92
2022-11-07T17:34:45.637Z,3.20
2022-11-07T17:37:17.691Z,3.00
2022-11-07T17:39:45.535Z,2.63
2022-11-07T17:42:13.017Z,2.80
2022-11-07T17:44:39.902Z,3.13
2022-11-07T17:47:06.701Z,2.38
2022-11-07T17:49:33.260Z,2.60
2022-11-07T17:51:59.684Z,2.53
2022-11-07T17:54:29.497Z,2.78
2022-11-07T17:56:56.367Z,2.88
2022-11-07T17:59:23.294Z,2.70
2022-11-07T18:01:49.899Z,2.63
2022-11-07T18:04:16.396Z,4.13
2022-11-07T18:06:43.312Z,4.25
2022-11-07T18:09:14.832Z,3.65
2022-11-07T18:11:41.488Z,3.00
2022-11-07T18:14:09.900Z,2.97
2022-11-07T18:16:37.281Z,2.92
2022-11-07T18:19:05.329Z,2.88
2022-11-07T18:21:32.256Z,3.40
2022-11-07T18:23:58.678Z,4.00
2022-11-07T18:26:30.920Z,5.57
2022-11-07T18:29:02.116Z,5.70
2022-11-07T18:31:28.742Z,7.38
2022-11-07T18:34:04.469Z,8.88
2022-11-07T18:36:33.095Z,9.57
2022-11-07T18:39:05.032Z,10.32
2022-11-07T18:41:31.681Z,9.07
2022-11-07T18:44:03.172Z,8.13
2022-11-07T18:46:31.111Z,9.52
2022-11-07T18:48:59.525Z,7.65
2022-11-07T18:51:25.976Z,6.30
2022-11-07T18:53:54.800Z,5.03
2022-11-07T18:56:21.852Z,4.10
2022-11-07T18:58:48.300Z,3.40
2022-11-07T19:01:19.141Z,5.57
2022-11-07T19:03:46.571Z,5.80
2022-11-07T19:06:15.990Z,5.53
2022-11-07T19:08:44.616Z,7.70
2022-11-07T19:11:13.853Z,7.65
2022-11-07T19:13:42.695Z,7.68
2022-11-07T19:16:11.083Z,9.38
2022-11-07T19:18:38.067Z,8.65
2022-11-07T19:21:05.271Z,7.68
2022-11-07T19:23:32.238Z,8.18
2022-11-07T19:25:58.740Z,7.22
2022-11-07T19:28:25.222Z,6.63
2022-11-07T19:30:51.652Z,6.38
2022-11-07T19:33:18.473Z,6.30
2022-11-07T19:35:45.157Z,6.10
2022-11-07T19:38:13.554Z,6.15
2022-11-07T19:40:41.378Z,5.63
2022-11-07T19:43:09.396Z,4.50
2022-11-07T19:45:40.601Z,4.70
2022-11-07T19:48:07.109Z,4.40
2022-11-07T19:50:33.503Z,4.32
2022-11-07T19:52:59.910Z,4.43
2022-11-07T19:55:26.320Z,4.13
2022-11-07T19:57:52.782Z,3.50
2022-11-07T20:00:19.288Z,3.30
2022-11-07T20:02:48.674Z,4.38
2022-11-07T20:05:23.793Z,3.42
2022-11-07T20:07:58.104Z,3.53
2022-11-07T20:10:27.477Z,2.78
2022-11-07T20:12:54.750Z,4.13
2022-11-07T20:15:21.662Z,3.90
2022-11-07T20:17:48.197Z,5.30
2022-11-07T20:20:14.858Z,5.68
2022-11-07T20:22:46.458Z,6.30
2022-11-07T20:25:13.589Z,4.18
2022-11-07T20:27:40.122Z,4.28
2022-11-07T20:30:07.308Z,6.10
2022-11-07T20:32:33.761Z,4.80
2022-11-07T20:35:00.209Z,4.40
2022-11-07T20:37:26.662Z,5.60
2022-11-07T20:39:53.077Z,5.65
2022-11-07T20:42:19.542Z,6.65
2022-11-07T20:44:46.123Z,6.60
2022-11-07T20:47:12.547Z,6.25
2022-11-07T20:49:41.208Z,5.53
2022-11-07T20:52:07.960Z,7.13
2022-11-07T20:54:35.245Z,6.80
2022-11-07T20:57:01.895Z,6.85
2022-11-07T20:59:28.348Z,6.53
2022-11-07T21:02:00.202Z,7.15
2022-11-07T21:04:36.267Z,6.88
2022-11-07T21:09:37.329Z,5.55
2022-11-07T21:12:03.855Z,5.05
2022-11-07T21:14:30.362Z,5.85
2022-11-07T21:16:57.338Z,5.82
2022-11-07T21:19:23.797Z,6.47
2022-11-07T21:21:50.330Z,5.78
2022-11-07T21:24:16.763Z,6.28
2022-11-07T21:26:43.328Z,6.65
2022-11-07T21:29:10.897Z,6.13
2022-11-07T21:31:39.288Z,4.68
2022-11-07T21:34:07.330Z,5.68
2022-11-07T21:36:33.859Z,4.47
2022-11-07T21:39:01.895Z,5.13
2022-11-07T21:41:30.068Z,4.97
2022-11-07T21:43:59.843Z,4.85
2022-11-07T21:46:31.562Z,4.82
2022-11-07T21:48:58.626Z,4.78
2022-11-07T21:51:30.496Z,4.97
2022-11-07T21:53:57.942Z,5.13
2022-11-07T21:56:29.419Z,4.72
2022-11-07T21:59:02.080Z,5.35
2022-11-07T22:01:29.904Z,4.88
2022-11-07T22:04:06.691Z,4.60
2022-11-07T22:06:35.973Z,4.75
2022-11-07T22:09:03.561Z,4.00
2022-11-07T22:11:30.004Z,3.97
2022-11-07T22:13:56.423Z,3.40
2022-11-07T22:16:23.127Z,3.72
2022-11-07T22:18:49.741Z,3.53
2022-11-07T22:21:19.071Z,3.60
2022-11-07T22:23:45.754Z,3.47
2022-11-07T22:26:18.798Z,3.72
2022-11-07T22:28:46.226Z,3.40
2022-11-07T22:31:19.431Z,4.07
2022-11-07T22:33:46.258Z,3.95
2022-11-07T22:36:14.834Z,4.75
2022-11-07T22:38:41.748Z,4.57
2022-11-07T22:41:11.455Z,5.32
2022-11-07T22:43:38.320Z,4.43
2022-11-07T22:46:07.366Z,4.38
2022-11-07T22:48:34.107Z,5.15
2022-11-07T22:51:05.097Z,5.05
2022-11-07T22:53:31.940Z,5.38
2022-11-07T22:55:58.936Z,5.88
2022-11-07T22:58:25.385Z,6.28
2022-11-07T23:00:51.844Z,5.30
2022-11-07T23:03:18.389Z,5.10
2022-11-07T23:05:44.859Z,4.78
2022-11-07T23:08:11.272Z,4.65
2022-11-07T23:10:37.768Z,4.30
2022-11-07T23:13:04.667Z,3.95
2022-11-07T23:15:55.146Z,4.10
2022-11-07T23:18:21.580Z,4.18
2022-11-07T23:21:06.337Z,4.45
2022-11-07T23:23:32.844Z,5.30
2022-11-07T23:26:02.457Z,5.07
2022-11-07T23:28:28.953Z,6.20
2022-11-07T23:30:55.446Z,6.90
2022-11-07T23:33:21.952Z,6.55
2022-11-07T23:35:49.158Z,6.18
2022-11-07T23:38:16.702Z,6.85
2022-11-07T23:40:43.647Z,6.43
2022-11-07T23:43:10.116Z,7.50
2022-11-07T23:45:55.008Z,7.75
2022-11-07T23:48:39.818Z,7.20
2022-11-07T23:51:10.868Z,7.30
2022-11-07T23:53:56.744Z,9.35
2022-11-07T23:56:25.826Z,6.95
2022-11-07T23:59:11.661Z,7.40
